Time;durP1;ratioP1;P1;durP2;ratioP2;P2;SDS_P1;SDS_P2;PMS_P1;PMS_P2;Temp;Humidity;BMP_temperature;BMP_pressure;BME280_temperature;BME280_humidity;BME280_pressure;Samples;Min_cycle;Max_cycle;Signal;HPM_P1;HPM_P2
2022/07/28 00:00:34;;;;;;;0.88;0.68;;;17.20;99.90;;;;;;5096610;28;20182;-56
2022/07/28 00:03:00;;;;;;;0.17;0.17;;;17.10;99.90;;;;;;5078305;28;20170;-54
2022/07/28 00:05:26;;;;;;;0.30;0.30;;;17.10;99.90;;;;;;5096602;28;20181;-56
2022/07/28 00:07:52;;;;;;;1.00;0.57;;;17.10;99.90;;;;;;5096266;28;20166;-56
2022/07/28 00:10:17;;;;;;;0.20;0.20;;;17.10;99.90;;;;;;5096157;28;20577;-55
2022/07/28 00:12:43;;;;;;;0.50;0.50;;;17.10;99.90;;;;;;5078092;28;20170;-60
2022/07/28 00:15:10;;;;;;;1.10;0.40;;;17.10;99.90;;;;;;5096324;28;20785;-55
2022/07/28 00:17:36;;;;;;;0.30;0.30;;;17.00;99.90;;;;;;5095993;28;20567;-55
2022/07/28 00:20:03;;;;;;;0.65;0.30;;;17.00;99.90;;;;;;5078037;28;20268;-55
2022/07/28 00:22:29;;;;;;;0.20;0.20;;;17.00;99.90;;;;;;5096043;28;20220;-56
2022/07/28 00:24:55;;;;;;;1.35;0.35;;;16.90;99.90;;;;;;5096094;28;20174;-56
2022/07/28 00:27:21;;;;;;;0.32;0.32;;;16.80;99.90;;;;;;5095812;28;20250;-56
2022/07/28 00:29:47;;;;;;;1.27;0.52;;;16.80;99.90;;;;;;5095678;28;20235;-55
2022/07/28 00:32:15;;;;;;;0.30;0.30;;;16.70;99.90;;;;;;5096015;28;20215;-56
2022/07/28 00:34:41;;;;;;;1.00;0.30;;;16.70;99.90;;;;;;5095816;28;20185;-55
2022/07/28 00:37:07;;;;;;;0.47;0.40;;;16.70;99.90;;;;;;5076653;28;20174;-55
2022/07/28 00:39:33;;;;;;;0.75;0.50;;;16.80;99.90;;;;;;5077602;28;20548;-55
2022/07/28 00:41:59;;;;;;;0.30;0.25;;;16.80;99.90;;;;;;5077452;28;20238;-55
2022/07/28 00:44:25;;;;;;;1.08;0.45;;;16.70;99.90;;;;;;5096117;28;20241;-56
2022/07/28 00:46:51;;;;;;;0.30;0.30;;;16.60;99.90;;;;;;5077588;28;20268;-55
2022/07/28 00:49:17;;;;;;;0.30;0.30;;;16.60;99.90;;;;;;5095682;28;20185;-56
2022/07/28 00:51:47;;;;;;;0.40;0.40;;;16.60;99.90;;;;;;5077464;28;20178;-55
2022/07/28 00:54:12;;;;;;;0.40;0.40;;;16.60;99.90;;;;;;5077608;28;20189;-55
2022/07/28 00:56:38;;;;;;;1.38;0.50;;;16.50;99.90;;;;;;5095240;28;20651;-56
2022/07/28 00:59:04;;;;;;;0.40;0.40;;;16.50;99.90;;;;;;5077253;28;20412;-56
2022/07/28 01:01:29;;;;;;;0.30;0.30;;;16.50;99.90;;;;;;5077276;28;20177;-55
2022/07/28 01:03:59;;;;;;;0.50;0.40;;;16.50;99.90;;;;;;5060336;28;20170;-55
2022/07/28 01:06:39;;;;;;;0.30;0.30;;;16.50;99.90;;;;;;5095645;28;20170;-55
2022/07/28 01:09:10;;;;;;;0.25;0.25;;;16.50;99.90;;;;;;5095125;28;20204;-55
2022/07/28 01:11:47;;;;;;;1.13;0.50;;;16.50;99.90;;;;;;5094930;28;20181;-56
2022/07/28 01:14:16;;;;;;;0.30;0.30;;;16.50;99.90;;;;;;5095246;28;20261;-56
2022/07/28 01:17:10;;;;;;;0.30;0.30;;;16.50;99.90;;;;;;5095349;28;20223;-56
2022/07/28 01:19:51;;;;;;;0.40;0.40;;;16.60;99.90;;;;;;5094825;28;20247;-55
2022/07/28 01:22:21;;;;;;;0.30;0.30;;;16.40;99.90;;;;;;5095111;28;20240;-56
2022/07/28 01:25:11;;;;;;;0.82;0.50;;;16.40;99.90;;;;;;5095337;28;20286;-55
2022/07/28 01:28:10;;;;;;;0.40;0.40;;;16.30;99.90;;;;;;5094844;28;20181;-56
2022/07/28 01:30:42;;;;;;;0.35;0.35;;;16.40;99.90;;;;;;5054370;28;20217;-54
2022/07/28 01:33:48;;;;;;;0.40;0.40;;;16.30;99.90;;;;;;5094827;28;20523;-57
2022/07/28 01:36:18;;;;;;;0.20;0.20;;;16.30;99.90;;;;;;4992923;28;20515;-54
2022/07/28 01:38:47;;;;;;;0.28;0.28;;;16.30;99.90;;;;;;5079862;28;20269;-56
2022/07/28 01:41:18;;;;;;;0.50;0.50;;;16.40;99.90;;;;;;5094411;28;20174;-55
2022/07/28 01:43:50;;;;;;;1.85;0.38;;;16.30;99.90;;;;;;5094526;28;20208;-56
2022/07/28 01:46:17;;;;;;;0.50;0.50;;;16.30;99.90;;;;;;5094537;28;20165;-53
2022/07/28 01:48:45;;;;;;;0.45;0.40;;;16.30;99.90;;;;;;5093807;28;20174;-56
2022/07/28 01:51:13;;;;;;;0.30;0.30;;;16.20;99.90;;;;;;5094508;28;20170;-56
2022/07/28 01:53:40;;;;;;;0.22;0.22;;;16.30;99.90;;;;;;5094317;28;20174;-55
2022/07/28 01:56:07;;;;;;;0.30;0.30;;;16.30;99.90;;;;;;5094642;28;20253;-56
2022/07/28 01:58:34;;;;;;;0.35;0.35;;;16.30;99.90;;;;;;5094254;28;20197;-55
2022/07/28 02:01:02;;;;;;;0.38;0.30;;;16.30;99.90;;;;;;5094130;28;20178;-56
2022/07/28 02:03:30;;;;;;;0.50;0.50;;;16.30;99.90;;;;;;5094084;28;20516;-55
2022/07/28 02:05:58;;;;;;;0.32;0.32;;;16.20;99.90;;;;;;5094160;28;20170;-55
2022/07/28 02:08:25;;;;;;;0.35;0.35;;;16.20;99.90;;;;;;5093839;28;20174;-55
2022/07/28 02:13:47;;;;;;;0.30;0.30;;;16.10;99.90;;;;;;5094000;28;20231;-55
2022/07/28 02:16:16;;;;;;;1.75;0.50;;;16.10;99.90;;;;;;5094081;28;20193;-57
2022/07/28 02:18:43;;;;;;;0.30;0.30;;;16.10;99.90;;;;;;5093702;28;20202;-56
2022/07/28 02:21:10;;;;;;;0.38;0.30;;;16.00;99.90;;;;;;5093788;28;20186;-56
2022/07/28 02:23:38;;;;;;;0.63;0.40;;;16.00;99.90;;;;;;5093967;28;20197;-55
2022/07/28 02:26:08;;;;;;;0.25;0.25;;;16.10;99.90;;;;;;5093797;28;20166;-54
2022/07/28 02:28:35;;;;;;;0.52;0.40;;;16.10;99.90;;;;;;5093727;28;20534;-55
2022/07/28 02:31:07;;;;;;;0.50;0.50;;;15.90;99.90;;;;;;5093837;28;20162;-55
2022/07/28 02:33:36;;;;;;;0.30;0.30;;;15.90;99.90;;;;;;5093794;28;20170;-55
2022/07/28 02:36:10;;;;;;;0.65;0.43;;;15.90;99.90;;;;;;5093603;28;20550;-54
2022/07/28 02:38:41;;;;;;;0.45;0.45;;;15.90;99.90;;;;;;5093316;28;20213;-55
2022/07/28 02:41:21;;;;;;;0.43;0.43;;;15.90;99.90;;;;;;5093642;28;20713;-56
2022/07/28 02:43:50;;;;;;;1.08;0.30;;;15.80;99.90;;;;;;5093523;28;20170;-54
2022/07/28 02:46:18;;;;;;;0.50;0.50;;;15.80;99.90;;;;;;5093556;28;20266;-55
2022/07/28 02:48:48;;;;;;;0.35;0.35;;;15.70;99.90;;;;;;5075317;28;20570;-54
2022/07/28 02:51:15;;;;;;;0.25;0.25;;;15.70;99.90;;;;;;5075263;28;20635;-54
2022/07/28 02:53:44;;;;;;;0.43;0.32;;;15.80;99.90;;;;;;5075768;28;20181;-56
2022/07/28 02:56:11;;;;;;;0.30;0.30;;;15.70;99.90;;;;;;5093824;28;20173;-55
2022/07/28 02:58:38;;;;;;;0.40;0.35;;;15.70;99.90;;;;;;5093354;28;20202;-56
2022/07/28 03:01:04;;;;;;;0.30;0.20;;;15.60;99.90;;;;;;5078830;28;20204;-56
2022/07/28 03:03:32;;;;;;;0.50;0.50;;;15.50;99.90;;;;;;5097644;28;20834;-56
2022/07/28 03:05:58;;;;;;;0.77;0.63;;;15.60;99.90;;;;;;5097666;28;20635;-55
2022/07/28 03:08:23;;;;;;;0.30;0.30;;;15.60;99.90;;;;;;5097569;28;20220;-54
2022/07/28 03:11:04;;;;;;;0.50;0.38;;;15.60;99.90;;;;;;5079480;28;20635;-55
2022/07/28 03:13:30;;;;;;;0.30;0.30;;;15.40;99.90;;;;;;5097341;28;20184;-54
2022/07/28 03:15:56;;;;;;;0.40;0.40;;;15.50;99.90;;;;;;5062908;28;20174;-54
2022/07/28 03:18:23;;;;;;;0.52;0.30;;;15.50;99.90;;;;;;5062313;28;20735;-53
2022/07/28 03:20:49;;;;;;;0.80;0.55;;;15.40;99.90;;;;;;5097621;28;20273;-55
2022/07/28 03:23:15;;;;;;;0.50;0.45;;;15.40;99.90;;;;;;5097117;28;20249;-55
2022/07/28 03:25:46;;;;;;;0.38;0.38;;;15.40;99.90;;;;;;5079025;28;20182;-55
2022/07/28 03:28:19;;;;;;;0.35;0.35;;;15.30;99.90;;;;;;5097102;28;20166;-56
2022/07/28 03:30:49;;;;;;;2.20;0.50;;;15.30;99.90;;;;;;5078839;28;20194;-55
2022/07/28 03:33:15;;;;;;;0.45;0.32;;;15.20;99.90;;;;;;5096896;28;20202;-53
2022/07/28 03:35:47;;;;;;;0.38;0.38;;;15.20;99.90;;;;;;5097293;28;20208;-56
2022/07/28 03:38:15;;;;;;;0.20;0.20;;;15.20;99.90;;;;;;5096805;28;20202;-55
2022/07/28 03:40:41;;;;;;;0.32;0.32;;;15.20;99.90;;;;;;5079012;28;20201;-56
2022/07/28 03:43:11;;;;;;;0.45;0.45;;;15.10;99.90;;;;;;5096767;28;20260;-56
2022/07/28 03:45:37;;;;;;;0.55;0.55;;;14.90;99.90;;;;;;5096679;28;20200;-54
2022/07/28 03:48:03;;;;;;;0.35;0.30;;;15.00;99.90;;;;;;5078590;28;20215;-55
2022/07/28 03:50:31;;;;;;;0.75;0.52;;;15.00;99.90;;;;;;5096634;28;20643;-54
2022/07/28 03:52:58;;;;;;;0.30;0.30;;;15.10;99.90;;;;;;5096625;28;20210;-55
2022/07/28 03:55:24;;;;;;;0.30;0.30;;;15.20;99.90;;;;;;5096571;28;20197;-55
2022/07/28 03:57:50;;;;;;;0.50;0.50;;;15.10;99.90;;;;;;5096322;28;20651;-56
2022/07/28 04:00:17;;;;;;;0.70;0.50;;;15.00;99.90;;;;;;5096544;28;20189;-55
2022/07/28 04:02:43;;;;;;;0.30;0.20;;;15.00;99.90;;;;;;5061894;28;20185;-56
2022/07/28 04:05:13;;;;;;;0.40;0.40;;;15.10;99.90;;;;;;5096451;28;20193;-55
2022/07/28 04:07:40;;;;;;;1.48;0.30;;;15.20;99.90;;;;;;5096295;28;20185;-56
2022/07/28 04:10:08;;;;;;;0.52;0.52;;;15.20;99.90;;;;;;5077993;28;20234;-55
2022/07/28 04:12:54;;;;;;;0.75;0.40;;;15.10;99.90;;;;;;5096195;28;20610;-53
2022/07/28 04:15:21;;;;;;;0.50;0.40;;;15.10;99.90;;;;;;5096284;28;20192;-55
2022/07/28 04:17:48;;;;;;;0.40;0.40;;;15.00;99.90;;;;;;5096393;28;20206;-55
2022/07/28 04:20:17;;;;;;;1.27;0.50;;;15.00;99.90;;;;;;5096130;28;20198;-54
2022/07/28 04:22:44;;;;;;;0.57;0.32;;;14.90;99.90;;;;;;5096022;28;20162;-54
2022/07/28 04:25:13;;;;;;;0.40;0.40;;;14.90;99.90;;;;;;5095900;28;20174;-53
2022/07/28 04:27:39;;;;;;;0.60;0.40;;;15.00;99.90;;;;;;5095900;28;20170;-55
2022/07/28 04:30:09;;;;;;;0.47;0.40;;;15.00;99.90;;;;;;5095998;28;20283;-55
2022/07/28 04:32:37;;;;;;;0.40;0.40;;;15.00;99.90;;;;;;5095999;28;20515;-55
2022/07/28 04:35:03;;;;;;;0.88;0.40;;;15.00;99.90;;;;;;5061233;28;20188;-54
2022/07/28 04:37:29;;;;;;;0.30;0.30;;;15.00;99.90;;;;;;5095481;28;20227;-55
2022/07/28 04:39:54;;;;;;;0.30;0.30;;;14.90;99.90;;;;;;5078097;28;20213;-54
2022/07/28 04:42:20;;;;;;;0.40;0.40;;;15.10;99.90;;;;;;5095626;28;20191;-55
2022/07/28 04:44:46;;;;;;;0.60;0.52;;;15.00;99.90;;;;;;5077538;28;20224;-55
2022/07/28 04:47:12;;;;;;;0.43;0.40;;;15.00;99.90;;;;;;5095526;28;20174;-56
2022/07/28 04:49:38;;;;;;;0.88;0.43;;;15.00;99.90;;;;;;5077478;28;20182;-56
2022/07/28 04:52:05;;;;;;;0.40;0.40;;;14.90;99.90;;;;;;5095372;28;20576;-54
2022/07/28 04:54:30;;;;;;;0.90;0.50;;;15.00;99.90;;;;;;5095466;28;20184;-56
2022/07/28 04:56:56;;;;;;;0.40;0.40;;;14.90;99.90;;;;;;5095485;28;20261;-55
2022/07/28 04:59:22;;;;;;;0.63;0.60;;;15.00;99.90;;;;;;5095312;28;20212;-53
2022/07/28 05:01:47;;;;;;;0.43;0.30;;;15.00;99.90;;;;;;5095320;28;20631;-54
2022/07/28 05:04:13;;;;;;;0.93;0.50;;;15.10;99.90;;;;;;5077242;28;20197;-54
2022/07/28 05:06:39;;;;;;;0.63;0.47;;;15.00;99.90;;;;;;5095104;28;20535;-56
2022/07/28 05:09:04;;;;;;;0.30;0.30;;;15.00;99.90;;;;;;5077010;28;20260;-55
2022/07/28 05:11:30;;;;;;;0.43;0.40;;;15.00;99.90;;;;;;5095290;28;20194;-52
2022/07/28 05:13:56;;;;;;;0.65;0.65;;;15.10;99.90;;;;;;5077340;28;20174;-55
2022/07/28 05:16:25;;;;;;;0.43;0.40;;;15.00;99.90;;;;;;5094929;28;20174;-56
2022/07/28 05:18:50;;;;;;;0.60;0.30;;;15.00;99.90;;;;;;5094781;28;20235;-57
2022/07/28 05:21:16;;;;;;;0.57;0.57;;;15.00;99.90;;;;;;5094823;28;20677;-56
2022/07/28 05:23:41;;;;;;;0.35;0.35;;;15.00;99.90;;;;;;5094067;28;20533;-55
2022/07/28 05:26:07;;;;;;;0.30;0.30;;;15.10;99.90;;;;;;5076871;28;20217;-54
2022/07/28 05:28:33;;;;;;;0.45;0.45;;;15.00;99.90;;;;;;5076386;28;20699;-56
2022/07/28 05:30:59;;;;;;;0.40;0.40;;;15.00;99.90;;;;;;5076711;28;20170;-55
2022/07/28 05:33:24;;;;;;;0.75;0.30;;;15.00;99.90;;;;;;5094617;28;20184;-56
2022/07/28 05:35:58;;;;;;;0.40;0.40;;;15.00;99.90;;;;;;5094471;28;20688;-55
2022/07/28 05:38:24;;;;;;;0.20;0.20;;;15.00;99.90;;;;;;5094718;28;20247;-56
2022/07/28 05:40:50;;;;;;;0.77;0.43;;;14.90;99.90;;;;;;5094596;28;20535;-55
2022/07/28 05:43:16;;;;;;;0.35;0.35;;;15.00;99.90;;;;;;5094549;28;20174;-56
2022/07/28 05:45:41;;;;;;;1.45;0.73;;;15.10;99.90;;;;;;5059681;28;20536;-56
2022/07/28 05:48:07;;;;;;;0.30;0.30;;;15.10;99.90;;;;;;5093901;28;20178;-57
2022/07/28 05:50:33;;;;;;;0.57;0.45;;;15.20;99.90;;;;;;5093101;28;20181;-56
2022/07/28 05:52:58;;;;;;;0.32;0.32;;;15.40;99.90;;;;;;5093368;28;20174;-56
2022/07/28 05:55:24;;;;;;;0.32;0.32;;;15.60;99.90;;;;;;5075728;28;20659;-55
2022/07/28 05:57:50;;;;;;;0.60;0.60;;;15.70;99.90;;;;;;5075987;28;20236;-56
2022/07/28 06:00:18;;;;;;;0.50;0.40;;;15.80;99.90;;;;;;5093920;28;20170;-55
2022/07/28 06:02:46;;;;;;;0.47;0.47;;;16.00;99.90;;;;;;5093769;28;20182;-56
2022/07/28 06:05:12;;;;;;;0.60;0.55;;;15.90;99.90;;;;;;5093565;28;20177;-53
2022/07/28 06:07:38;;;;;;;0.70;0.70;;;16.00;99.90;;;;;;5093835;28;20177;-55
2022/07/28 06:10:05;;;;;;;0.60;0.50;;;16.10;99.90;;;;;;5093589;28;20182;-55
2022/07/28 06:12:30;;;;;;;0.52;0.52;;;16.30;99.90;;;;;;5094134;28;20617;-55
2022/07/28 06:14:56;;;;;;;0.50;0.50;;;16.50;99.90;;;;;;5076007;28;20247;-56
2022/07/28 06:17:22;;;;;;;0.50;0.50;;;16.70;99.90;;;;;;5075212;28;20631;-55
2022/07/28 06:19:47;;;;;;;0.75;0.50;;;16.80;99.90;;;;;;5089876;28;20240;-55
2022/07/28 06:22:16;;;;;;;0.57;0.50;;;17.00;99.90;;;;;;5072895;28;20174;-56
2022/07/28 06:24:42;;;;;;;0.50;0.50;;;17.00;99.90;;;;;;5055784;28;20249;-56
2022/07/28 06:27:07;;;;;;;1.20;0.70;;;17.30;99.90;;;;;;5073551;28;20605;-56
2022/07/28 06:29:33;;;;;;;0.63;0.57;;;17.50;99.90;;;;;;5055416;28;20185;-56
2022/07/28 06:31:59;;;;;;;2.33;0.82;;;17.60;99.90;;;;;;5055076;28;20308;-56
2022/07/28 06:34:24;;;;;;;1.23;0.90;;;17.50;99.90;;;;;;5073168;28;20171;-56
2022/07/28 06:36:50;;;;;;;1.02;0.40;;;17.20;99.90;;;;;;5073531;28;20178;-56
2022/07/28 06:39:16;;;;;;;1.40;0.70;;;17.20;99.90;;;;;;5073097;28;20348;-56
2022/07/28 06:41:43;;;;;;;1.42;0.57;;;17.20;99.90;;;;;;5073266;28;20205;-56
2022/07/28 06:44:09;;;;;;;0.38;0.38;;;17.20;99.90;;;;;;5055537;28;20628;-56
2022/07/28 06:46:35;;;;;;;1.08;0.70;;;17.30;99.90;;;;;;5073091;28;20183;-56
2022/07/28 06:49:10;;;;;;;0.50;0.40;;;17.40;99.90;;;;;;5073141;28;20626;-54
2022/07/28 06:51:36;;;;;;;1.02;0.63;;;17.40;99.90;;;;;;5073029;28;20186;-55
2022/07/28 06:54:02;;;;;;;0.60;0.60;;;17.40;99.90;;;;;;5055175;28;20273;-55
2022/07/28 06:56:28;;;;;;;0.60;0.57;;;17.50;99.90;;;;;;5073056;28;20186;-56
2022/07/28 06:58:53;;;;;;;0.65;0.60;;;17.50;99.90;;;;;;5072911;28;20209;-55
2022/07/28 07:01:19;;;;;;;0.45;0.40;;;17.40;99.90;;;;;;5072923;28;20265;-55
2022/07/28 07:03:45;;;;;;;1.00;0.60;;;17.40;99.90;;;;;;5071727;28;20190;-56
2022/07/28 07:06:11;;;;;;;0.35;0.35;;;17.60;99.90;;;;;;5072981;28;20761;-54
2022/07/28 07:08:37;;;;;;;1.08;0.40;;;17.70;99.90;;;;;;5073116;28;20253;-53
2022/07/28 07:11:03;;;;;;;0.60;0.55;;;17.90;99.90;;;;;;5072902;28;20224;-55
2022/07/28 07:13:28;;;;;;;0.60;0.60;;;17.80;99.90;;;;;;5072892;28;20171;-57
2022/07/28 07:15:54;;;;;;;0.60;0.60;;;17.80;99.90;;;;;;5072836;28;20189;-54
2022/07/28 07:18:20;;;;;;;0.50;0.50;;;18.00;99.90;;;;;;5055214;28;20250;-55
2022/07/28 07:20:45;;;;;;;0.40;0.40;;;17.90;99.90;;;;;;5038462;28;20179;-54
2022/07/28 07:23:11;;;;;;;0.57;0.43;;;18.00;99.90;;;;;;5055090;28;20186;-55
2022/07/28 07:25:37;;;;;;;0.50;0.50;;;18.00;99.90;;;;;;5072877;28;20261;-56
2022/07/28 07:28:03;;;;;;;0.55;0.55;;;18.20;99.90;;;;;;5072860;28;20666;-56
2022/07/28 07:30:29;;;;;;;1.05;0.55;;;18.20;99.90;;;;;;5072739;28;20789;-54
2022/07/28 07:32:54;;;;;;;0.40;0.40;;;18.30;99.80;;;;;;5072984;28;20236;-55
2022/07/28 07:35:20;;;;;;;0.90;0.50;;;18.40;99.70;;;;;;5072909;28;20206;-56
2022/07/28 07:37:45;;;;;;;1.10;0.75;;;18.50;99.90;;;;;;5054977;28;20183;-56
2022/07/28 07:40:11;;;;;;;0.50;0.50;;;18.60;99.20;;;;;;5054754;28;20190;-56
2022/07/28 07:42:37;;;;;;;0.40;0.30;;;18.60;99.20;;;;;;5054952;28;20636;-55
2022/07/28 07:45:06;;;;;;;0.55;0.55;;;18.60;99.60;;;;;;5072717;28;20175;-55
2022/07/28 07:47:34;;;;;;;0.50;0.50;;;18.80;99.40;;;;;;5057967;28;20723;-55
2022/07/28 07:50:00;;;;;;;1.23;0.43;;;19.10;99.40;;;;;;5075786;28;20633;-56
2022/07/28 07:52:26;;;;;;;1.20;0.60;;;19.30;99.20;;;;;;5076314;28;20182;-52
2022/07/28 07:54:51;;;;;;;0.45;0.45;;;19.40;98.10;;;;;;5076275;28;20179;-56
2022/07/28 07:57:17;;;;;;;0.68;0.60;;;19.80;98.50;;;;;;5076213;28;20175;-55
2022/07/28 07:59:42;;;;;;;0.65;0.55;;;19.90;98.00;;;;;;5058509;28;20293;-56
2022/07/28 08:02:08;;;;;;;0.73;0.73;;;20.00;97.80;;;;;;5076358;28;20178;-55
2022/07/28 08:04:34;;;;;;;0.63;0.60;;;19.90;97.60;;;;;;5041855;28;20184;-56
2022/07/28 08:07:00;;;;;;;0.95;0.60;;;20.00;98.00;;;;;;5075657;28;20175;-55
2022/07/28 08:09:25;;;;;;;0.77;0.60;;;20.20;97.20;;;;;;5075078;28;20273;-55
2022/07/28 08:11:51;;;;;;;0.68;0.52;;;20.30;97.00;;;;;;5058167;28;20218;-56
2022/07/28 08:14:17;;;;;;;0.82;0.63;;;20.30;97.00;;;;;;5057936;28;20171;-54
2022/07/28 08:16:42;;;;;;;0.93;0.60;;;20.50;96.70;;;;;;5076026;28;20185;-55
2022/07/28 08:19:08;;;;;;;1.05;0.57;;;20.60;96.70;;;;;;5075855;28;20206;-55
2022/07/28 08:21:34;;;;;;;1.17;0.80;;;20.50;96.50;;;;;;5075901;28;20183;-56
2022/07/28 08:23:59;;;;;;;0.47;0.47;;;20.60;96.90;;;;;;5075776;28;20179;-57
2022/07/28 08:26:28;;;;;;;1.17;0.60;;;20.60;96.80;;;;;;5057786;28;20716;-53
2022/07/28 08:28:54;;;;;;;1.45;0.75;;;20.70;96.60;;;;;;5075584;28;20190;-55
2022/07/28 08:31:20;;;;;;;0.50;0.50;;;20.90;96.50;;;;;;5075549;28;20244;-55
2022/07/28 08:33:50;;;;;;;0.40;0.40;;;21.20;96.40;;;;;;5058033;28;20165;-54
2022/07/28 08:36:15;;;;;;;1.30;0.80;;;21.10;95.60;;;;;;5075523;28;20257;-54
2022/07/28 08:38:41;;;;;;;0.98;0.50;;;21.10;95.80;;;;;;5075347;28;20302;-55
2022/07/28 08:41:21;;;;;;;1.45;0.50;;;21.10;95.30;;;;;;5075699;28;20202;-55
2022/07/28 08:43:51;;;;;;;1.55;0.80;;;21.20;95.40;;;;;;5075600;28;20175;-56
2022/07/28 08:46:18;;;;;;;0.80;0.73;;;21.40;95.60;;;;;;5075501;28;20163;-55
2022/07/28 08:48:44;;;;;;;0.60;0.60;;;21.50;94.70;;;;;;5075370;28;20210;-56
2022/07/28 08:51:11;;;;;;;0.50;0.50;;;21.40;94.60;;;;;;5057520;28;20190;-56
2022/07/28 08:53:39;;;;;;;0.30;0.30;;;21.50;95.00;;;;;;5075149;28;20175;-55
2022/07/28 08:56:07;;;;;;;0.60;0.43;;;21.70;95.20;;;;;;5057069;28;20316;-55
2022/07/28 08:58:35;;;;;;;0.52;0.43;;;22.00;94.60;;;;;;5074141;28;20740;-55
2022/07/28 09:01:02;;;;;;;0.38;0.38;;;21.90;94.40;;;;;;5075145;28;20171;-56
2022/07/28 09:03:31;;;;;;;1.77;0.50;;;22.00;94.90;;;;;;5075062;28;20693;-56
2022/07/28 09:05:56;;;;;;;0.63;0.50;;;22.10;94.20;;;;;;5074926;28;20175;-56
2022/07/28 09:08:23;;;;;;;1.25;0.57;;;22.00;93.20;;;;;;5074961;28;20658;-56
2022/07/28 09:10:49;;;;;;;0.40;0.40;;;22.20;93.60;;;;;;5056965;28;20244;-56
2022/07/28 09:13:16;;;;;;;1.40;0.50;;;22.20;94.00;;;;;;5074866;28;20224;-55
2022/07/28 09:15:45;;;;;;;0.50;0.50;;;22.40;93.40;;;;;;5075099;28;20257;-54
2022/07/28 09:18:12;;;;;;;0.68;0.52;;;22.40;92.90;;;;;;5074582;28;20663;-56
2022/07/28 09:20:40;;;;;;;0.40;0.40;;;22.30;92.60;;;;;;5074542;28;20195;-56
2022/07/28 09:23:06;;;;;;;0.40;0.40;;;21.90;92.50;;;;;;5074797;28;20209;-56
2022/07/28 09:25:33;;;;;;;0.60;0.40;;;21.90;93.10;;;;;;5074542;28;20174;-56
2022/07/28 09:28:17;;;;;;;0.20;0.20;;;22.20;94.20;;;;;;5056745;28;20178;-56
2022/07/28 09:30:45;;;;;;;0.30;0.30;;;22.40;92.40;;;;;;5074575;28;20167;-55
2022/07/28 09:33:22;;;;;;;0.55;0.50;;;22.70;93.00;;;;;;5074209;28;20240;-56
2022/07/28 09:35:53;;;;;;;0.30;0.30;;;22.70;92.00;;;;;;5056671;28;20257;-56
2022/07/28 09:38:21;;;;;;;0.88;0.57;;;22.80;92.20;;;;;;5056446;28;20212;-55
2022/07/28 09:41:00;;;;;;;0.65;0.52;;;23.10;91.50;;;;;;5074573;28;20277;-55
2022/07/28 09:43:52;;;;;;;1.65;0.40;;;23.00;91.80;;;;;;5074206;28;20184;-55
2022/07/28 09:46:24;;;;;;;0.60;0.50;;;23.00;91.60;;;;;;5069623;28;20210;-56
2022/07/28 09:48:54;;;;;;;1.55;0.52;;;23.10;91.30;;;;;;5074241;28;20170;-57
2022/07/28 09:51:26;;;;;;;0.40;0.40;;;23.10;91.60;;;;;;5074191;28;20170;-56
2022/07/28 09:53:57;;;;;;;0.40;0.32;;;23.40;90.90;;;;;;5073961;28;20182;-56
2022/07/28 09:56:24;;;;;;;0.40;0.40;;;23.20;91.10;;;;;;5073926;28;20170;-56
2022/07/28 09:58:54;;;;;;;0.50;0.40;;;23.20;91.70;;;;;;5073955;28;20691;-56
2022/07/28 10:01:20;;;;;;;1.10;0.88;;;23.60;91.70;;;;;;5073904;28;20180;-57
2022/07/28 10:03:56;;;;;;;0.43;0.43;;;23.60;90.50;;;;;;5039563;28;20183;-55
2022/07/28 10:06:28;;;;;;;0.50;0.50;;;23.40;90.50;;;;;;5073868;28;20562;-56
2022/07/28 10:08:56;;;;;;;0.52;0.40;;;23.60;90.70;;;;;;5073335;28;20182;-56
2022/07/28 10:11:26;;;;;;;0.55;0.40;;;23.60;90.60;;;;;;5073619;28;20182;-56
2022/07/28 10:14:04;;;;;;;0.80;0.55;;;23.60;90.60;;;;;;5056077;28;20194;-56
2022/07/28 10:16:35;;;;;;;0.60;0.60;;;23.40;89.80;;;;;;5073552;28;20170;-55
2022/07/28 10:19:04;;;;;;;1.15;0.60;;;23.10;89.90;;;;;;5073365;28;20255;-56
2022/07/28 10:21:33;;;;;;;0.35;0.30;;;23.20;89.80;;;;;;5073649;28;20210;-55
2022/07/28 10:24:04;;;;;;;1.55;0.80;;;23.40;90.20;;;;;;5073466;28;20224;-56
2022/07/28 10:26:38;;;;;;;0.50;0.50;;;23.60;90.40;;;;;;5073626;28;20177;-56
2022/07/28 10:29:08;;;;;;;0.60;0.40;;;23.60;89.00;;;;;;5055824;28;20588;-56
2022/07/28 10:31:48;;;;;;;0.75;0.60;;;23.50;89.20;;;;;;5055184;28;20257;-57
2022/07/28 10:34:47;;;;;;;1.48;0.93;;;23.30;90.30;;;;;;5056018;28;20170;-57
2022/07/28 10:37:20;;;;;;;0.73;0.40;;;23.50;89.70;;;;;;5067007;28;20183;-55
2022/07/28 10:40:06;;;;;;;0.73;0.73;;;23.90;90.00;;;;;;5073134;28;20261;-56
2022/07/28 10:42:33;;;;;;;0.70;0.57;;;24.20;89.30;;;;;;5073871;28;20167;-56
2022/07/28 10:45:01;;;;;;;0.88;0.50;;;24.20;89.30;;;;;;5055804;28;20182;-57
2022/07/28 10:47:27;;;;;;;0.38;0.38;;;23.90;90.20;;;;;;5055036;28;20531;-57
2022/07/28 10:49:53;;;;;;;1.10;0.40;;;23.70;91.10;;;;;;5055325;28;20178;-58
2022/07/28 10:52:20;;;;;;;1.10;0.30;;;23.40;89.30;;;;;;5072941;28;20666;-56
2022/07/28 10:55:06;;;;;;;0.50;0.50;;;23.20;90.00;;;;;;5073322;28;20217;-56
2022/07/28 10:57:36;;;;;;;0.50;0.50;;;23.40;90.80;;;;;;5073315;28;20243;-57
2022/07/28 11:00:16;;;;;;;0.80;0.55;;;23.30;89.50;;;;;;5073079;28;20646;-57
2022/07/28 11:02:57;;;;;;;1.10;0.38;;;23.10;89.90;;;;;;5073048;28;20184;-57
2022/07/28 11:05:35;;;;;;;0.63;0.63;;;23.10;90.90;;;;;;5073196;28;20167;-57
2022/07/28 11:08:03;;;;;;;1.70;0.43;;;23.20;90.70;;;;;;5073088;28;20323;-57
2022/07/28 11:10:41;;;;;;;0.45;0.45;;;23.40;90.10;;;;;;5072755;28;20272;-53
2022/07/28 11:13:06;;;;;;;0.30;0.30;;;23.30;89.40;;;;;;5072997;28;20178;-57
2022/07/28 11:15:34;;;;;;;0.40;0.40;;;23.10;90.00;;;;;;5072813;28;20175;-57
2022/07/28 11:18:05;;;;;;;0.63;0.52;;;23.00;89.40;;;;;;5072967;28;20177;-57
2022/07/28 11:21:06;;;;;;;0.40;0.35;;;23.00;90.00;;;;;;5073490;28;20655;-56
2022/07/28 11:23:51;;;;;;;0.60;0.60;;;22.90;90.40;;;;;;4959654;28;20184;-56
2022/07/28 11:26:23;;;;;;;0.38;0.30;;;22.90;90.50;;;;;;5038123;28;20189;-57
2022/07/28 11:29:07;;;;;;;0.57;0.47;;;23.00;90.60;;;;;;5076790;28;20532;-57
2022/07/28 11:31:47;;;;;;;0.50;0.40;;;23.20;90.60;;;;;;5076844;28;20198;-57
2022/07/28 11:34:16;;;;;;;1.48;0.60;;;23.80;90.70;;;;;;5076497;28;20178;-57
2022/07/28 11:37:01;;;;;;;1.25;0.60;;;24.10;88.60;;;;;;5076744;28;20179;-56
2022/07/28 11:39:32;;;;;;;0.50;0.30;;;24.70;89.30;;;;;;5076430;28;20210;-57
2022/07/28 11:41:58;;;;;;;0.75;0.55;;;24.70;86.60;;;;;;5076535;28;20173;-57
2022/07/28 11:44:30;;;;;;;0.40;0.40;;;24.60;87.60;;;;;;5058702;28;20190;-56
2022/07/28 11:47:23;;;;;;;0.50;0.38;;;24.40;87.50;;;;;;5076664;28;20224;-56
2022/07/28 11:50:14;;;;;;;0.40;0.40;;;23.90;89.30;;;;;;5072445;28;20195;-57
2022/07/28 11:52:54;;;;;;;1.02;0.60;;;23.90;89.50;;;;;;5076267;28;20166;-56
2022/07/28 11:55:20;;;;;;;0.95;0.40;;;23.40;89.20;;;;;;5076488;28;20235;-57
2022/07/28 11:57:46;;;;;;;0.60;0.40;;;23.30;90.30;;;;;;5076407;28;20686;-56
2022/07/28 12:00:19;;;;;;;0.50;0.32;;;23.50;90.60;;;;;;5058553;28;20183;-56
2022/07/28 12:02:45;;;;;;;0.50;0.50;;;23.50;90.50;;;;;;5058345;28;20196;-56
2022/07/28 12:05:13;;;;;;;2.15;0.50;;;23.30;90.70;;;;;;5076109;28;20171;-57
2022/07/28 12:07:48;;;;;;;0.65;0.50;;;23.20;90.30;;;;;;5076002;28;20585;-56
2022/07/28 12:10:31;;;;;;;0.40;0.40;;;22.90;90.70;;;;;;5075788;28;20179;-57
2022/07/28 12:12:59;;;;;;;0.30;0.30;;;23.20;91.20;;;;;;5076050;28;20163;-57
2022/07/28 12:15:26;;;;;;;0.40;0.35;;;23.40;90.20;;;;;;5075876;28;20174;-57
2022/07/28 12:17:52;;;;;;;0.77;0.32;;;23.60;90.90;;;;;;5057860;28;20182;-56
2022/07/28 12:20:18;;;;;;;0.40;0.40;;;23.60;90.30;;;;;;5075783;28;20185;-54
2022/07/28 12:23:13;;;;;;;0.90;0.90;;;23.60;90.50;;;;;;5075988;28;20179;-56
2022/07/28 12:25:43;;;;;;;0.80;0.40;;;23.40;90.10;;;;;;5054307;28;20221;-55
2022/07/28 12:28:17;;;;;;;0.73;0.40;;;23.30;90.30;;;;;;5075708;28;20368;-57
2022/07/28 12:30:43;;;;;;;0.40;0.40;;;23.30;90.60;;;;;;5075994;28;20171;-56
2022/07/28 12:33:23;;;;;;;0.82;0.50;;;23.20;90.30;;;;;;5075614;28;20177;-57
2022/07/28 12:35:51;;;;;;;1.00;0.50;;;23.40;90.60;;;;;;5057852;28;20198;-57
2022/07/28 12:38:21;;;;;;;0.47;0.47;;;23.50;90.50;;;;;;5075271;28;20249;-56
2022/07/28 12:40:46;;;;;;;0.45;0.20;;;23.90;90.40;;;;;;5075354;28;20256;-56
2022/07/28 12:43:18;;;;;;;2.85;0.55;;;24.10;90.20;;;;;;5075432;28;20217;-57
2022/07/28 12:45:47;;;;;;;1.00;0.50;;;24.50;90.60;;;;;;5075386;28;20177;-56
2022/07/28 12:48:13;;;;;;;0.43;0.40;;;24.40;88.40;;;;;;5075445;28;20225;-56
2022/07/28 12:50:40;;;;;;;1.80;0.70;;;24.50;88.60;;;;;;5057592;28;20632;-57
2022/07/28 12:53:10;;;;;;;0.80;0.50;;;24.60;88.40;;;;;;5075090;28;20189;-55
2022/07/28 12:55:37;;;;;;;1.95;0.55;;;24.50;88.90;;;;;;5074838;28;20182;-57
2022/07/28 12:58:04;;;;;;;0.40;0.40;;;24.60;88.20;;;;;;5057203;28;20628;-56
2022/07/28 13:00:34;;;;;;;1.30;0.40;;;24.60;87.40;;;;;;5057441;28;20202;-56